createdAt,value
2022-09-18T00:01:33.518Z,101000.66
2022-09-18T00:04:04.626Z,101003.59
2022-09-18T00:06:36.578Z,101011.09
2022-09-18T00:09:06.935Z,101010.00
2022-09-18T00:11:40.830Z,101009.41
2022-09-18T00:14:11.719Z,101012.59
2022-09-18T00:16:39.826Z,101010.97
2022-09-18T00:19:07.739Z,101002.28
2022-09-18T00:21:37.648Z,101010.91
2022-09-18T00:24:07.107Z,101006.91
2022-09-18T00:26:35.718Z,101001.75
2022-09-18T00:29:03.963Z,100997.41
2022-09-18T00:31:35.672Z,100994.47
2022-09-18T00:34:06.345Z,101005.25
2022-09-18T00:36:35.729Z,101007.13
2022-09-18T00:39:04.137Z,101000.34
2022-09-18T00:41:34.413Z,100991.22
2022-09-18T00:44:32.745Z,100986.63
2022-09-18T00:47:12.574Z,100984.69
2022-09-18T00:50:05.040Z,100975.47
2022-09-18T00:52:49.648Z,100973.25
2022-09-18T00:55:22.634Z,100969.13
2022-09-18T00:57:54.814Z,100976.19
2022-09-18T01:00:23.620Z,100978.88
2022-09-18T01:02:51.709Z,100983.69
2022-09-18T01:05:24.828Z,100985.28
2022-09-18T01:07:58.409Z,100988.50
2022-09-18T01:10:33.773Z,100986.81
2022-09-18T01:13:05.457Z,100984.69
2022-09-18T01:15:54.991Z,100969.84
2022-09-18T01:18:41.447Z,100944.84
2022-09-18T01:21:14.857Z,100967.88
2022-09-18T01:24:03.711Z,100967.03
2022-09-18T01:26:45.713Z,100963.81
2022-09-18T01:29:31.561Z,100951.41
2022-09-18T01:32:26.536Z,100949.75
2022-09-18T01:35:39.880Z,100961.03
2022-09-18T01:38:34.351Z,100967.97
2022-09-18T01:41:12.529Z,100964.78
2022-09-18T01:43:44.677Z,100967.72
2022-09-18T01:46:16.872Z,100984.69
2022-09-18T01:49:14.898Z,100974.72
2022-09-18T01:51:50.220Z,100978.25
2022-09-18T01:54:31.727Z,100981.44
2022-09-18T01:57:11.121Z,100968.69
2022-09-18T01:59:47.182Z,100988.13
2022-09-18T02:02:32.805Z,100994.00
2022-09-18T02:05:02.828Z,100997.28
2022-09-18T02:07:45.884Z,101005.34
2022-09-18T02:10:13.933Z,101008.53
2022-09-18T02:12:44.339Z,101003.63
2022-09-18T02:15:15.038Z,100994.16
2022-09-18T02:17:59.305Z,101002.25
2022-09-18T02:20:39.952Z,101003.31
2022-09-18T02:23:09.444Z,101004.94
2022-09-18T02:25:42.423Z,100995.00
2022-09-18T02:28:13.690Z,100992.03
2022-09-18T02:30:42.781Z,100991.25
2022-09-18T02:33:29.589Z,100990.16
2022-09-18T02:36:21.677Z,100990.41
2022-09-18T02:39:16.938Z,100985.59
2022-09-18T02:41:59.434Z,100988.28
2022-09-18T02:44:33.606Z,100982.41
2022-09-18T02:47:26.331Z,100980.47
2022-09-18T02:49:59.511Z,100981.84
2022-09-18T02:52:35.967Z,100980.78
2022-09-18T02:55:16.755Z,100981.00
2022-09-18T02:57:50.347Z,100986.50
2022-09-18T03:00:19.068Z,100980.63
2022-09-18T03:02:51.133Z,100988.38
2022-09-18T03:05:31.231Z,100983.56
2022-09-18T03:08:00.617Z,100977.13
2022-09-18T03:10:29.896Z,100982.97
2022-09-18T03:12:57.871Z,100980.41
2022-09-18T03:15:28.163Z,100981.72
2022-09-18T03:17:57.055Z,100986.22
2022-09-18T03:20:24.569Z,100986.47
2022-09-18T03:22:52.193Z,100978.25
2022-09-18T03:25:19.977Z,100974.91
2022-09-18T03:27:47.598Z,100985.59
2022-09-18T03:30:24.585Z,100987.72
2022-09-18T03:32:52.089Z,100997.00
2022-09-18T03:35:20.154Z,100984.16
2022-09-18T03:37:49.128Z,100994.09
2022-09-18T03:40:21.514Z,100999.25
2022-09-18T03:42:51.098Z,100997.41
2022-09-18T03:45:18.667Z,100985.03
2022-09-18T03:47:47.119Z,100992.00
2022-09-18T03:50:15.449Z,100991.53
2022-09-18T03:52:45.657Z,101002.34
2022-09-18T03:55:42.798Z,101005.84
2022-09-18T03:58:28.592Z,101013.53
2022-09-18T04:01:01.976Z,101004.31
2022-09-18T04:03:38.962Z,101000.13
2022-09-18T04:06:26.330Z,101000.47
2022-09-18T04:09:13.969Z,100997.47
2022-09-18T04:11:49.403Z,101004.06
2022-09-18T04:14:16.841Z,100996.38
2022-09-18T04:16:45.833Z,101001.53
2022-09-18T04:19:13.335Z,100998.59
2022-09-18T04:21:40.928Z,101001.25
2022-09-18T04:24:08.742Z,101000.66
2022-09-18T04:26:37.043Z,100998.75
2022-09-18T04:29:05.647Z,100995.78
2022-09-18T04:31:37.143Z,101001.22
2022-09-18T04:34:08.732Z,100998.78
2022-09-18T04:36:36.472Z,101000.81
2022-09-18T04:39:04.642Z,100997.22
2022-09-18T04:41:32.224Z,100995.66
2022-09-18T04:44:00.160Z,101004.22
2022-09-18T04:46:27.705Z,101003.00
2022-09-18T04:48:55.485Z,100993.81
2022-09-18T04:51:28.509Z,100997.16
2022-09-18T04:53:56.166Z,101003.19
2022-09-18T04:56:24.708Z,101001.81
2022-09-18T04:58:53.506Z,101004.84
2022-09-18T05:01:21.059Z,101005.38
2022-09-18T05:03:48.856Z,100995.31
2022-09-18T05:06:25.295Z,100988.88
2022-09-18T05:08:53.463Z,100987.50
2022-09-18T05:11:25.122Z,100990.81
2022-09-18T05:13:56.962Z,100991.09
2022-09-18T05:16:27.819Z,100982.69
2022-09-18T05:19:21.355Z,100987.53
2022-09-18T05:21:50.687Z,100999.22
2022-09-18T05:24:19.207Z,100989.88
2022-09-18T05:26:48.831Z,100992.19
2022-09-18T05:29:20.340Z,100989.09
2022-09-18T05:31:49.071Z,100992.16
2022-09-18T05:34:17.099Z,100990.53
2022-09-18T05:36:46.590Z,100995.03
2022-09-18T05:39:17.448Z,100997.13
2022-09-18T05:41:48.539Z,100994.22
2022-09-18T05:44:16.151Z,100995.16
2022-09-18T05:46:43.803Z,100981.72
2022-09-18T05:49:11.336Z,100977.22
2022-09-18T05:51:39.383Z,100977.75
2022-09-18T05:54:07.035Z,100979.81
2022-09-18T05:56:42.881Z,100987.34
2022-09-18T05:59:11.598Z,100994.66
2022-09-18T06:01:42.569Z,100985.84
2022-09-18T06:04:12.559Z,100994.28
2022-09-18T06:06:52.801Z,100996.38
2022-09-18T06:09:20.379Z,100993.53
2022-09-18T06:11:48.727Z,100995.13
2022-09-18T06:14:17.493Z,100987.66
2022-09-18T06:16:47.228Z,100988.25
2022-09-18T06:19:14.791Z,100989.13
2022-09-18T06:21:44.941Z,100986.25
2022-09-18T06:24:16.199Z,100986.59
2022-09-18T06:26:58.445Z,100992.50
2022-09-18T06:29:27.678Z,100986.72
2022-09-18T06:32:04.525Z,100985.47
2022-09-18T06:34:37.990Z,100974.41
2022-09-18T06:37:10.439Z,100980.47
2022-09-18T06:39:44.183Z,100970.44
2022-09-18T06:42:34.790Z,100977.16
2022-09-18T06:45:13.744Z,100969.34
2022-09-18T06:47:41.611Z,100952.31
2022-09-18T06:50:09.864Z,100958.25
2022-09-18T06:52:37.935Z,100946.97
2022-09-18T06:55:06.489Z,100948.50
2022-09-18T06:57:34.438Z,100947.88
2022-09-18T07:00:02.151Z,100946.22
2022-09-18T07:02:37.279Z,100932.28
2022-09-18T07:05:27.782Z,100943.06
2022-09-18T07:07:55.321Z,100947.81
2022-09-18T07:10:24.804Z,100938.97
2022-09-18T07:12:59.454Z,100928.66
2022-09-18T07:15:29.427Z,100916.97
2022-09-18T07:17:58.621Z,100924.97
2022-09-18T07:20:27.083Z,100927.34
2022-09-18T07:22:56.972Z,100927.50
2022-09-18T07:25:36.742Z,100917.25
2022-09-18T07:28:08.213Z,100921.44
2022-09-18T07:30:41.745Z,100921.75
2022-09-18T07:33:10.576Z,100915.06
2022-09-18T07:35:44.500Z,100906.50
2022-09-18T07:38:14.081Z,100904.50
2022-09-18T07:40:53.979Z,100918.94
2022-09-18T07:43:30.333Z,100920.31
2022-09-18T07:45:59.711Z,100919.28
2022-09-18T07:48:30.066Z,100914.34
2022-09-18T07:51:06.841Z,100906.28
2022-09-18T07:53:37.775Z,100908.06
2022-09-18T07:56:10.534Z,100913.63
2022-09-18T07:58:38.814Z,100914.53
2022-09-18T08:01:12.121Z,100906.13
2022-09-18T08:03:45.165Z,100905.19
2022-09-18T08:06:13.542Z,100896.66
2022-09-18T08:08:55.035Z,100891.22
2022-09-18T08:11:36.288Z,100890.84
2022-09-18T08:14:29.064Z,100886.03
2022-09-18T08:17:21.606Z,100875.69
2022-09-18T08:20:15.385Z,100878.53
2022-09-18T08:22:51.141Z,100865.69
2022-09-18T08:25:25.295Z,100854.19
2022-09-18T08:27:53.148Z,100851.47
2022-09-18T08:30:46.475Z,100835.00
2022-09-18T08:33:14.042Z,100846.59
2022-09-18T08:35:41.971Z,100844.00
2022-09-18T08:38:23.697Z,100842.25
2022-09-18T08:41:43.584Z,100820.25
2022-09-18T08:44:24.531Z,100819.38
2022-09-18T08:47:05.488Z,100813.44
2022-09-18T08:49:39.995Z,100775.94
2022-09-18T08:52:29.386Z,100818.94
2022-09-18T08:55:32.553Z,100811.59
2022-09-18T08:58:50.953Z,100810.56
2022-09-18T09:01:20.244Z,100812.09
2022-09-18T09:04:07.722Z,100811.03
2022-09-18T09:06:48.493Z,100810.09
2022-09-18T09:10:00.863Z,100805.13
2022-09-18T09:12:54.732Z,100796.97
2022-09-18T09:15:48.110Z,100805.31
2022-09-18T09:18:18.222Z,100808.88
2022-09-18T09:20:53.796Z,100801.19
2022-09-18T09:23:49.896Z,100795.03
2022-09-18T09:26:41.708Z,100804.50
2022-09-18T09:29:30.600Z,100805.28
2022-09-18T09:32:26.205Z,100804.59
2022-09-18T09:35:26.779Z,100796.22
2022-09-18T09:38:48.124Z,100796.13
2022-09-18T09:41:37.589Z,100794.50
2022-09-18T09:44:34.177Z,100789.81
2022-09-18T09:47:07.441Z,100787.97
2022-09-18T09:49:57.519Z,100790.47
2022-09-18T09:52:27.449Z,100782.91
2022-09-18T09:55:14.495Z,100790.38
2022-09-18T09:58:15.628Z,100790.84
2022-09-18T10:01:11.710Z,100793.19
2022-09-18T10:04:24.139Z,100790.88
2022-09-18T10:07:13.520Z,100778.38
2022-09-18T10:09:54.777Z,100786.28
2022-09-18T10:12:48.083Z,100784.59
2022-09-18T10:15:24.867Z,100792.69
2022-09-18T10:17:57.316Z,100783.97
2022-09-18T10:20:31.787Z,100779.91
2022-09-18T10:23:10.308Z,100771.75
2022-09-18T10:25:46.559Z,100773.94
2022-09-18T10:28:15.113Z,100776.75
2022-09-18T10:31:04.528Z,100784.75
2022-09-18T10:33:42.237Z,100781.91
2022-09-18T10:36:33.571Z,100780.59
2022-09-18T10:39:19.102Z,100776.38
2022-09-18T10:41:49.179Z,100777.88
2022-09-18T10:44:48.871Z,100782.91
2022-09-18T10:47:27.092Z,100783.38
2022-09-18T10:50:11.657Z,100794.19
2022-09-18T10:52:43.724Z,100790.84
2022-09-18T10:55:25.967Z,100783.16
2022-09-18T10:58:00.223Z,100788.56
2022-09-18T11:00:30.201Z,100791.88
2022-09-18T11:03:15.773Z,100787.75
2022-09-18T11:05:57.711Z,100786.59
2022-09-18T11:08:34.452Z,100785.47
2022-09-18T11:11:34.495Z,100785.56
2022-09-18T11:14:25.259Z,100782.91
2022-09-18T11:17:22.663Z,100776.84
2022-09-18T11:19:52.878Z,100778.22
2022-09-18T11:22:32.402Z,100769.97
2022-09-18T11:25:08.378Z,100768.44
2022-09-18T11:27:49.947Z,100767.31
2022-09-18T11:30:29.862Z,100759.38
2022-09-18T11:33:21.734Z,100762.59
2022-09-18T11:35:56.682Z,100747.59
2022-09-18T11:38:24.740Z,100762.72
2022-09-18T11:40:54.653Z,100749.19
2022-09-18T11:43:30.039Z,100760.22
2022-09-18T11:45:58.907Z,100758.34
2022-09-18T11:48:36.650Z,100754.59
2022-09-18T11:51:13.496Z,100756.28
2022-09-18T11:53:49.622Z,100747.56
2022-09-18T11:56:32.396Z,100743.44
2022-09-18T11:59:07.863Z,100741.63
2022-09-18T12:01:46.595Z,100737.25
2022-09-18T12:04:21.969Z,100735.88
2022-09-18T12:07:03.753Z,100725.91
2022-09-18T12:09:52.912Z,100725.91
2022-09-18T12:12:28.573Z,100716.38
2022-09-18T12:15:07.097Z,100727.03
2022-09-18T12:22:55.180Z,100724.84
2022-09-18T12:25:34.178Z,100725.53
2022-09-18T12:28:36.558Z,100711.75
2022-09-18T12:31:28.383Z,100719.00
2022-09-18T12:34:31.006Z,100712.41
2022-09-18T12:37:17.106Z,100708.41
2022-09-18T12:40:04.415Z,100706.13
2022-09-18T12:43:01.287Z,100703.50
2022-09-18T12:45:40.671Z,100704.75
2022-09-18T12:48:37.569Z,100700.75
2022-09-18T12:51:19.170Z,100707.63
2022-09-18T12:54:08.287Z,100708.97
2022-09-18T12:56:56.425Z,100714.00
2022-09-18T12:59:47.830Z,100706.47
2022-09-18T13:02:54.927Z,100703.91
2022-09-18T13:05:47.460Z,100700.22
2022-09-18T13:08:38.823Z,100704.94
2022-09-18T13:11:29.004Z,100710.91
2022-09-18T13:14:02.123Z,100695.75
2022-09-18T13:17:06.211Z,100691.75
2022-09-18T13:19:42.422Z,100686.13
2022-09-18T13:22:16.984Z,100675.00
2022-09-18T13:24:49.987Z,100686.66
2022-09-18T13:27:21.384Z,100677.47
2022-09-18T13:29:52.014Z,100681.38
2022-09-18T13:32:26.048Z,100680.09
2022-09-18T13:35:00.474Z,100674.94
2022-09-18T13:37:32.149Z,100671.72
2022-09-18T13:40:10.969Z,100672.88
2022-09-18T13:42:41.772Z,100669.53
2022-09-18T13:45:27.171Z,100669.53
2022-09-18T13:48:06.805Z,100679.94
2022-09-18T13:50:48.033Z,100675.47
2022-09-18T13:53:47.352Z,100668.56
2022-09-18T13:56:17.167Z,100673.13
2022-09-18T13:58:54.612Z,100674.94
2022-09-18T14:01:40.850Z,100679.50
2022-09-18T14:04:40.112Z,100668.72
2022-09-18T14:07:17.095Z,100669.59
2022-09-18T14:09:56.022Z,100671.72
2022-09-18T14:12:24.466Z,100671.47
2022-09-18T14:15:22.115Z,100668.09
2022-09-18T14:18:17.695Z,100664.63
2022-09-18T14:20:51.799Z,100667.44
2022-09-18T14:23:37.209Z,100666.03
2022-09-18T14:26:32.160Z,100660.56
2022-09-18T14:29:12.449Z,100659.03
2022-09-18T14:31:47.803Z,100659.84
2022-09-18T14:34:24.814Z,100665.56
2022-09-18T14:36:55.484Z,100669.59
2022-09-18T14:39:34.786Z,100663.03
2022-09-18T14:42:14.200Z,100668.69
2022-09-18T14:44:49.918Z,100669.53
2022-09-18T14:47:26.166Z,100679.41
2022-09-18T14:49:54.205Z,100670.44
2022-09-18T14:52:41.542Z,100672.38
2022-09-18T14:55:17.595Z,100666.06
2022-09-18T14:57:49.538Z,100675.94
2022-09-18T15:00:24.117Z,100669.69
2022-09-18T15:02:56.648Z,100668.09
2022-09-18T15:05:27.421Z,100674.41
2022-09-18T15:08:08.480Z,100673.13
2022-09-18T15:10:40.233Z,100678.25
2022-09-18T15:13:09.982Z,100683.41
2022-09-18T15:15:40.304Z,100674.38
2022-09-18T15:18:27.696Z,100677.63
2022-09-18T15:20:58.159Z,100683.88
2022-09-18T15:23:31.200Z,100685.97
2022-09-18T15:26:03.014Z,100686.47
2022-09-18T15:28:34.901Z,100692.38
2022-09-18T15:31:09.215Z,100693.69
2022-09-18T15:33:40.783Z,100690.13
2022-09-18T15:36:18.476Z,100681.22
2022-09-18T15:38:48.479Z,100684.41
2022-09-18T15:41:24.435Z,100691.50
2022-09-18T15:43:51.952Z,100695.38
2022-09-18T15:46:31.520Z,100691.00
2022-09-18T15:49:00.958Z,100688.09
2022-09-18T15:51:34.755Z,100693.88
2022-09-18T15:54:22.406Z,100693.88
2022-09-18T15:56:52.543Z,100695.34
2022-09-18T15:59:35.760Z,100689.69
2022-09-18T16:02:19.598Z,100677.91
2022-09-18T16:04:47.141Z,100696.41
2022-09-18T16:07:22.379Z,100690.78
2022-09-18T16:09:51.006Z,100683.34
2022-09-18T16:12:32.736Z,100685.75
2022-09-18T16:15:09.882Z,100676.59
2022-09-18T16:17:39.949Z,100675.09
2022-09-18T16:20:38.752Z,100685.69
2022-09-18T16:23:24.861Z,100674.22
2022-09-18T16:26:13.319Z,100672.84
2022-09-18T16:28:46.355Z,100677.25
2022-09-18T16:31:16.989Z,100683.63
2022-09-18T16:33:55.729Z,100669.97
2022-09-18T16:36:36.899Z,100687.22
2022-09-18T16:39:08.399Z,100676.09
2022-09-18T16:41:36.791Z,100664.53
2022-09-18T16:44:05.840Z,100677.81
2022-09-18T16:46:56.132Z,100675.81
2022-09-18T16:49:26.894Z,100685.81
2022-09-18T16:51:58.043Z,100680.97
2022-09-18T16:54:26.443Z,100677.84
2022-09-18T16:56:57.972Z,100676.72
2022-09-18T16:59:29.511Z,100685.22
2022-09-18T17:02:04.230Z,100681.97
2022-09-18T17:04:32.848Z,100689.31
2022-09-18T17:07:00.978Z,100672.56
2022-09-18T17:09:28.647Z,100673.34
2022-09-18T17:11:56.587Z,100674.28
2022-09-18T17:14:24.562Z,100681.16
2022-09-18T17:16:52.505Z,100663.47
2022-09-18T17:19:20.855Z,100666.00
2022-09-18T17:21:48.487Z,100661.44
2022-09-18T17:24:17.687Z,100673.16
2022-09-18T17:26:45.274Z,100662.25
2022-09-18T17:29:12.695Z,100662.56
2022-09-18T17:31:40.305Z,100662.38
2022-09-18T17:34:07.910Z,100653.69
2022-09-18T17:36:37.993Z,100648.53
2022-09-18T17:39:05.593Z,100646.41
2022-09-18T17:41:33.867Z,100643.81
2022-09-18T17:44:01.542Z,100630.56
2022-09-18T17:46:29.071Z,100636.31
2022-09-18T17:48:58.327Z,100644.00
2022-09-18T17:51:28.948Z,100646.81
2022-09-18T17:54:00.264Z,100643.06
2022-09-18T17:56:30.190Z,100640.50
2022-09-18T17:59:06.764Z,100642.94
2022-09-18T18:01:37.776Z,100647.41
2022-09-18T18:04:06.228Z,100642.22
2022-09-18T18:06:34.724Z,100625.34
2022-09-18T18:09:02.281Z,100617.19
2022-09-18T18:11:29.887Z,100618.81
2022-09-18T18:13:57.331Z,100587.94
2022-09-18T18:16:28.855Z,100595.41
2022-09-18T18:19:03.580Z,100588.03
2022-09-18T18:21:32.858Z,100588.03
2022-09-18T18:24:04.069Z,100601.94
2022-09-18T18:26:31.942Z,100604.66
2022-09-18T18:28:59.556Z,100608.50
2022-09-18T18:31:31.773Z,100609.00
2022-09-18T18:33:59.527Z,100620.41
2022-09-18T18:36:31.744Z,100619.84
2022-09-18T18:39:04.466Z,100622.97
2022-09-18T18:41:33.833Z,100617.44
2022-09-18T18:44:05.840Z,100621.97
2022-09-18T18:46:36.543Z,100607.75
2022-09-18T18:49:10.130Z,100589.38
2022-09-18T18:51:47.860Z,100561.25
2022-09-18T18:54:17.942Z,100524.69
2022-09-18T18:56:46.625Z,100499.66
2022-09-18T18:59:16.734Z,100497.25
2022-09-18T19:01:47.812Z,100515.09
2022-09-18T19:04:19.347Z,100522.16
2022-09-18T19:06:49.095Z,100505.94
2022-09-18T19:09:22.420Z,100501.28
2022-09-18T19:11:53.122Z,100509.78
2022-09-18T19:14:23.192Z,100507.47
2022-09-18T19:16:51.966Z,100499.38
2022-09-18T19:19:21.330Z,100508.19
2022-09-18T19:21:48.816Z,100495.94
2022-09-18T19:24:18.840Z,100501.59
2022-09-18T19:26:48.073Z,100506.97
2022-09-18T19:29:18.797Z,100501.91
2022-09-18T19:31:47.432Z,100507.25
2022-09-18T19:34:17.462Z,100521.88
2022-09-18T19:36:47.397Z,100523.78
2022-09-18T19:39:15.656Z,100541.88
2022-09-18T19:41:55.531Z,100538.19
2022-09-18T19:44:31.611Z,100547.09
2022-09-18T19:47:20.659Z,100530.63
2022-09-18T19:49:50.048Z,100518.00
2022-09-18T19:52:20.255Z,100501.00
2022-09-18T19:54:49.074Z,100492.81
2022-09-18T19:57:16.567Z,100509.91
2022-09-18T19:59:44.378Z,100501.41
2022-09-18T20:02:20.448Z,100511.72
2022-09-18T20:04:47.974Z,100520.38
2022-09-18T20:07:16.458Z,100530.66
2022-09-18T20:09:44.351Z,100556.53
2022-09-18T20:12:13.027Z,100554.41
2022-09-18T20:14:40.549Z,100589.94
2022-09-18T20:17:08.499Z,100571.97
2022-09-18T20:19:36.597Z,100557.22
2022-09-18T20:22:04.413Z,100517.84
2022-09-18T20:24:32.947Z,100491.44
2022-09-18T20:27:01.414Z,100479.66
2022-09-18T20:29:29.579Z,100482.22
2022-09-18T20:31:58.365Z,100462.22
2022-09-18T20:34:26.314Z,100426.22
2022-09-18T20:36:55.100Z,100404.50
2022-09-18T20:39:22.892Z,100391.41
2022-09-18T20:41:51.385Z,100394.91
2022-09-18T20:44:19.347Z,100418.34
2022-09-18T20:46:46.853Z,100435.63
2022-09-18T20:49:17.673Z,100455.34
2022-09-18T20:51:46.208Z,100471.78
2022-09-18T20:54:15.274Z,100485.84
2022-09-18T20:56:44.690Z,100499.91
2022-09-18T20:59:17.414Z,100502.25
2022-09-18T21:01:47.144Z,100500.34
2022-09-18T21:04:19.511Z,100516.47
2022-09-18T21:06:56.677Z,100514.88
2022-09-18T21:09:27.399Z,100527.69
2022-09-18T21:11:57.039Z,100540.53
2022-09-18T21:14:26.639Z,100548.72
2022-09-18T21:16:56.449Z,100561.19
2022-09-18T21:19:26.442Z,100564.44
2022-09-18T21:21:54.354Z,100556.75
2022-09-18T21:24:22.350Z,100560.28
2022-09-18T21:26:50.579Z,100551.31
2022-09-18T21:29:23.818Z,100555.66
2022-09-18T21:31:54.421Z,100551.81
2022-09-18T21:34:24.816Z,100543.94
2022-09-18T21:36:56.731Z,100531.22
2022-09-18T21:39:26.194Z,100539.91
2022-09-18T21:41:55.924Z,100540.84
2022-09-18T21:44:27.298Z,100547.69
2022-09-18T21:47:00.086Z,100555.97
2022-09-18T21:49:29.389Z,100570.22
2022-09-18T21:52:03.764Z,100599.19
2022-09-18T21:54:32.180Z,100627.22
2022-09-18T21:57:00.567Z,100671.44
2022-09-18T21:59:30.804Z,100705.56
2022-09-18T22:01:59.313Z,100718.97
2022-09-18T22:04:29.570Z,100730.38
2022-09-18T22:06:58.975Z,100740.75
2022-09-18T22:09:31.680Z,100763.66
2022-09-18T22:12:01.500Z,100789.59
2022-09-18T22:14:34.208Z,100799.66
2022-09-18T22:17:04.842Z,100779.78
2022-09-18T22:19:38.189Z,100744.47
2022-09-18T22:22:09.222Z,100784.28
2022-09-18T22:24:36.710Z,100795.28
2022-09-18T22:27:08.850Z,100729.72
2022-09-18T22:29:41.512Z,100724.09
2022-09-18T22:32:11.078Z,100724.97
2022-09-18T22:34:38.695Z,100738.44
2022-09-18T22:37:06.224Z,100719.97
2022-09-18T22:39:33.799Z,100683.56
2022-09-18T22:42:02.095Z,100653.13
2022-09-18T22:44:31.343Z,100648.25
2022-09-18T22:46:58.849Z,100638.47
2022-09-18T22:49:26.396Z,100637.94
2022-09-18T22:51:53.853Z,100623.84
2022-09-18T22:54:26.199Z,100601.06
2022-09-18T22:56:54.605Z,100602.56
2022-09-18T22:59:24.734Z,100585.28
2022-09-18T23:01:58.489Z,100582.63
2022-09-18T23:04:29.462Z,100603.16
2022-09-18T23:06:59.479Z,100619.22
2022-09-18T23:09:28.255Z,100595.94
2022-09-18T23:11:56.495Z,100609.84
2022-09-18T23:14:27.923Z,100603.88
2022-09-18T23:16:57.025Z,100599.81
2022-09-18T23:19:27.251Z,100598.81
2022-09-18T23:21:55.797Z,100595.56
2022-09-18T23:24:24.038Z,100582.84
2022-09-18T23:26:53.157Z,100587.28
2022-09-18T23:29:22.751Z,100591.97
2022-09-18T23:31:55.408Z,100596.69
2022-09-18T23:34:25.623Z,100585.88
2022-09-18T23:36:55.023Z,100582.72
2022-09-18T23:39:28.274Z,100581.16
2022-09-18T23:41:57.411Z,100569.84
2022-09-18T23:44:25.426Z,100559.63
2022-09-18T23:46:53.015Z,100530.88
2022-09-18T23:49:24.042Z,100522.28
2022-09-18T23:51:54.243Z,100521.81
2022-09-18T23:54:26.152Z,100523.50
2022-09-18T23:56:54.297Z,100519.75
2022-09-18T23:59:23.790Z,100520.91
